Time;durP1;ratioP1;P1;durP2;ratioP2;P2;SDS_P1;SDS_P2;PMS_P1;PMS_P2;Temp;Humidity;BMP_temperature;BMP_pressure;BME280_temperature;BME280_humidity;BME280_pressure;Samples;Min_cycle;Max_cycle;Signal;HPM_P1;HPM_P2
2022/10/05 00:01:46;;;;;;;6.60;3.70;;;;;;;8.33;100.00;101166.16;5040603;28;20034;-80
2022/10/05 00:04:17;;;;;;;4.57;3.83;;;;;;;8.31;100.00;101157.38;4987444;28;20075;-80
2022/10/05 00:07:07;;;;;;;5.70;3.93;;;;;;;8.31;100.00;101159.13;5054803;28;20478;-80
2022/10/05 00:09:34;;;;;;;5.93;4.33;;;;;;;8.30;100.00;101158.25;5051239;28;20067;-81
2022/10/05 00:12:28;;;;;;;5.03;3.63;;;;;;;8.29;100.00;101150.38;5050104;28;20033;-80
2022/10/05 00:14:59;;;;;;;5.07;3.63;;;;;;;8.30;100.00;101153.00;5018400;28;20053;-80
2022/10/05 00:17:28;;;;;;;7.35;4.70;;;;;;;8.32;100.00;101155.63;5049021;28;20037;-80
2022/10/05 00:19:54;;;;;;;4.90;4.17;;;;;;;8.32;100.00;101163.50;5028805;28;20630;-79
2022/10/05 00:22:23;;;;;;;6.87;4.53;;;;;;;8.32;100.00;101160.88;5037790;28;20458;-79
2022/10/05 00:24:54;;;;;;;6.20;4.10;;;;;;;8.33;100.00;101163.53;5030475;28;20037;-79
2022/10/05 00:27:25;;;;;;;5.60;3.97;;;;;;;8.37;100.00;101153.88;5047385;28;20098;-80
2022/10/05 00:29:53;;;;;;;7.22;5.03;;;;;;;8.40;100.00;101157.38;5010116;28;20049;-79
2022/10/05 00:32:19;;;;;;;7.83;4.40;;;;;;;8.39;100.00;101155.63;5008251;28;22167;-80
2022/10/05 00:34:46;;;;;;;6.93;4.00;;;;;;;8.39;100.00;101150.34;5021026;28;20041;-80
2022/10/05 00:37:13;;;;;;;7.72;5.20;;;;;;;8.38;100.00;101142.47;5031399;28;20102;-80
2022/10/05 00:39:41;;;;;;;6.30;4.67;;;;;;;8.38;100.00;101142.47;5041389;28;20036;-80
2022/10/05 00:42:17;;;;;;;6.63;4.10;;;;;;;8.37;100.00;101141.59;5030326;28;20498;-80
2022/10/05 00:44:50;;;;;;;6.90;4.43;;;;;;;8.35;100.00;101131.97;5034366;28;20033;-79
2022/10/05 00:47:27;;;;;;;6.67;4.30;;;;;;;8.37;100.00;101125.81;5045756;28;20040;-80
2022/10/05 00:50:05;;;;;;;9.45;4.35;;;;;;;8.31;100.00;101124.91;5052247;28;20494;-80
2022/10/05 00:52:53;;;;;;;9.40;4.57;;;;;;;8.31;100.00;101114.38;5025595;28;20041;-80
2022/10/05 00:55:47;;;;;;;5.40;4.10;;;;;;;8.32;100.00;101127.53;5031156;28;20038;-80
2022/10/05 00:58:44;;;;;;;4.88;3.70;;;;;;;8.24;100.00;101131.97;5039052;28;20502;-80
2022/10/05 01:01:17;;;;;;;7.33;3.87;;;;;;;8.21;100.00;101129.34;5043493;28;20037;-79
2022/10/05 01:03:50;;;;;;;5.67;3.87;;;;;;;8.19;100.00;101129.34;5028871;28;20548;-79
2022/10/05 01:06:56;;;;;;;6.70;4.20;;;;;;;8.12;100.00;101132.00;5025794;28;20593;-79
2022/10/05 01:09:32;;;;;;;4.93;3.90;;;;;;;8.08;100.00;101123.25;5060896;28;20413;-79
2022/10/05 01:12:05;;;;;;;5.83;4.03;;;;;;;8.09;100.00;101119.75;5008684;28;20044;-79
2022/10/05 01:14:56;;;;;;;8.52;4.50;;;;;;;8.02;100.00;101123.25;5021317;28;20098;-80
2022/10/05 01:17:33;;;;;;;6.50;4.37;;;;;;;8.03;100.00;101124.13;5040465;28;20484;-80
2022/10/05 01:20:10;;;;;;;6.23;3.47;;;;;;;8.00;100.00;101122.41;5041915;28;20037;-80
2022/10/05 01:23:01;;;;;;;4.90;3.37;;;;;;;7.92;100.00;101115.41;5022175;28;20041;-80
2022/10/05 01:26:06;;;;;;;5.00;3.67;;;;;;;7.90;100.00;101110.13;5049634;28;20045;-79
2022/10/05 01:28:44;;;;;;;4.50;3.33;;;;;;;7.85;100.00;101120.66;5056796;28;20052;-80
2022/10/05 01:31:42;;;;;;;6.93;4.43;;;;;;;7.82;100.00;101128.56;5052645;28;20060;-80
2022/10/05 01:34:30;;;;;;;8.53;3.97;;;;;;;7.85;100.00;101125.06;5037502;28;20045;-80
2022/10/05 01:37:15;;;;;;;4.93;3.87;;;;;;;7.72;100.00;101121.56;5040016;28;20033;-79
2022/10/05 01:39:52;;;;;;;6.47;4.17;;;;;;;7.68;100.00;101132.97;5058380;28;20057;-80
2022/10/05 01:42:30;;;;;;;6.40;4.47;;;;;;;7.61;100.00;101121.56;5027958;28;20037;-80
2022/10/05 01:45:15;;;;;;;5.87;4.07;;;;;;;7.57;100.00;101126.84;5044090;28;20041;-80
2022/10/05 01:47:45;;;;;;;6.03;3.93;;;;;;;7.49;100.00;101123.34;5029928;28;20038;-80
2022/10/05 01:50:24;;;;;;;8.23;4.20;;;;;;;7.45;100.00;101126.84;5046214;28;20102;-79
2022/10/05 01:52:59;;;;;;;5.47;4.10;;;;;;;7.38;100.00;101127.72;5013239;28;20040;-80
2022/10/05 01:55:44;;;;;;;7.50;4.07;;;;;;;7.29;100.00;101118.94;5015973;28;20561;-79
2022/10/05 01:58:40;;;;;;;6.60;3.90;;;;;;;7.24;100.00;101120.72;5025789;28;20410;-79
2022/10/05 02:01:14;;;;;;;5.90;4.03;;;;;;;7.20;100.00;101115.44;5013133;28;20045;-80
2022/10/05 02:03:46;;;;;;;5.50;3.55;;;;;;;7.24;100.00;101119.84;5048221;28;20086;-80
2022/10/05 02:06:18;;;;;;;5.73;4.40;;;;;;;7.23;100.00;101123.31;5002075;28;20056;-81
2022/10/05 02:08:49;;;;;;;8.63;4.13;;;;;;;7.18;100.00;101122.47;5031607;28;20512;-79
2022/10/05 02:11:17;;;;;;;5.33;4.20;;;;;;;7.18;100.00;101125.97;5004894;28;20075;-80
2022/10/05 02:13:57;;;;;;;6.40;3.87;;;;;;;7.13;100.00;101126.81;5049046;28;20059;-81
2022/10/05 02:16:37;;;;;;;7.17;4.37;;;;;;;7.15;100.00;101115.47;5022248;28;20072;-81
2022/10/05 02:19:13;;;;;;;6.50;4.10;;;;;;;7.11;100.00;101128.59;5036167;28;20099;-79
2022/10/05 02:21:43;;;;;;;5.10;4.27;;;;;;;7.08;100.00;101118.97;5025779;28;20090;-80
2022/10/05 02:24:13;;;;;;;5.07;3.70;;;;;;;7.05;100.00;101113.69;5017948;28;20046;-80
2022/10/05 02:26:40;;;;;;;6.73;3.87;;;;;;;7.11;100.00;101116.31;5036534;28;21078;-80
2022/10/05 02:29:09;;;;;;;5.17;3.47;;;;;;;7.11;100.00;101120.69;5042130;28;20033;-80
2022/10/05 02:34:23;;;;;;;6.07;3.93;;;;;;;7.18;100.00;101123.34;4989709;28;20073;-77
2022/10/05 02:37:21;;;;;;;5.83;4.17;;;;;;;7.17;100.00;101120.72;4979651;28;20034;-77
2022/10/05 02:40:04;;;;;;;6.13;4.00;;;;;;;7.18;100.00;101128.59;4968987;28;20055;-78
2022/10/05 02:42:40;;;;;;;6.90;3.80;;;;;;;7.19;100.00;101111.94;4984341;28;20038;-78
2022/10/05 02:45:40;;;;;;;6.70;4.20;;;;;;;7.26;100.00;101115.47;4968591;28;20043;-78
2022/10/05 02:48:14;;;;;;;5.97;4.10;;;;;;;7.26;100.00;101118.97;5003444;28;20046;-78
2022/10/05 02:50:46;;;;;;;9.13;4.80;;;;;;;7.30;100.00;101120.69;4979060;28;20046;-78
2022/10/05 02:53:44;;;;;;;7.33;4.37;;;;;;;7.38;100.00;101120.69;4991809;28;20107;-78
2022/10/05 02:56:26;;;;;;;8.47;4.17;;;;;;;7.40;100.00;101116.34;4982297;28;20054;-78
2022/10/05 02:59:18;;;;;;;9.73;6.30;;;;;;;7.40;100.00;101112.81;4979742;28;20049;-78
2022/10/05 03:02:21;;;;;;;8.70;5.57;;;;;;;7.39;100.00;101103.19;4997311;28;20042;-78
2022/10/05 03:05:33;;;;;;;6.57;4.30;;;;;;;7.41;100.00;101101.44;4976878;28;20047;-78
2022/10/05 03:08:01;;;;;;;15.20;4.07;;;;;;;7.43;100.00;101092.69;4966057;28;20102;-76
2022/10/05 03:10:35;;;;;;;6.47;4.27;;;;;;;7.50;100.00;101088.28;4974266;28;20051;-77
2022/10/05 03:13:01;;;;;;;5.97;4.57;;;;;;;7.52;100.00;101079.53;4972292;28;20043;-76
2022/10/05 03:15:49;;;;;;;10.07;4.30;;;;;;;7.58;100.00;101079.53;4973546;28;20038;-76
2022/10/05 03:18:19;;;;;;;9.37;4.10;;;;;;;7.56;100.00;101069.84;4972008;28;20101;-77
2022/10/05 03:20:54;;;;;;;8.70;4.53;;;;;;;7.59;100.00;101067.25;4992905;28;20050;-76
2022/10/05 03:23:48;;;;;;;6.53;4.20;;;;;;;7.60;100.00;101061.09;4990776;28;20047;-76
2022/10/05 03:26:23;;;;;;;7.57;4.37;;;;;;;7.70;100.00;101049.69;4971518;28;20097;-76
2022/10/05 03:29:18;;;;;;;7.17;4.50;;;;;;;7.71;100.00;101054.06;4982299;28;20531;-76
2022/10/05 03:31:50;;;;;;;5.15;3.78;;;;;;;7.65;100.00;101048.84;4968039;28;20101;-77
2022/10/05 03:34:57;;;;;;;5.97;3.97;;;;;;;7.76;100.00;101051.44;4971870;28;20500;-76
2022/10/05 03:37:51;;;;;;;8.20;4.33;;;;;;;7.68;100.00;101048.81;4954984;28;20063;-76
2022/10/05 03:40:26;;;;;;;7.47;5.00;;;;;;;7.71;100.00;101054.06;4986859;28;20472;-77
2022/10/05 03:43:06;;;;;;;9.43;5.67;;;;;;;7.79;100.00;101051.41;4996142;28;20447;-76
2022/10/05 03:45:43;;;;;;;13.37;6.87;;;;;;;7.87;100.00;101049.63;4987432;28;20043;-77
2022/10/05 03:48:15;;;;;;;10.57;5.83;;;;;;;7.95;100.00;101046.97;4986805;28;20116;-77
2022/10/05 03:50:52;;;;;;;10.97;5.17;;;;;;;7.95;100.00;101045.22;4996486;28;20098;-76
2022/10/05 03:53:21;;;;;;;9.63;5.93;;;;;;;7.97;100.00;101046.09;4977782;28;20712;-76
2022/10/05 03:55:53;;;;;;;9.03;5.50;;;;;;;8.00;100.00;101042.59;4979288;28;20047;-77
2022/10/05 03:58:37;;;;;;;9.23;5.70;;;;;;;8.05;100.00;101038.16;4984627;28;20042;-76
2022/10/05 04:01:07;;;;;;;7.10;4.93;;;;;;;8.06;100.00;101051.31;4981599;28;20047;-76
2022/10/05 04:03:34;;;;;;;7.80;4.97;;;;;;;8.08;100.00;101053.97;4974415;28;20039;-77
2022/10/05 04:06:12;;;;;;;8.50;4.80;;;;;;;8.16;100.00;101039.88;4983138;28;20089;-76
2022/10/05 04:08:51;;;;;;;7.50;4.63;;;;;;;8.16;100.00;101037.25;4975659;28;20061;-77
2022/10/05 04:11:32;;;;;;;8.80;5.70;;;;;;;8.24;100.00;101041.56;4986449;28;20392;-76
2022/10/05 04:14:14;;;;;;;10.13;4.90;;;;;;;8.22;100.00;101041.59;4971600;28;20527;-76
2022/10/05 04:16:47;;;;;;;12.97;5.27;;;;;;;8.28;100.00;101041.56;4983475;28;20094;-75
2022/10/05 04:19:26;;;;;;;8.45;5.72;;;;;;;8.33;100.00;101037.16;4968635;28;20038;-75
2022/10/05 04:22:04;;;;;;;9.27;5.13;;;;;;;8.49;100.00;101035.34;4967125;28;20093;-76
2022/10/05 04:24:43;;;;;;;8.38;5.05;;;;;;;8.40;100.00;101040.66;4969852;28;20081;-76
2022/10/05 04:27:18;;;;;;;8.30;5.33;;;;;;;8.42;100.00;101039.78;4967835;28;20670;-75
2022/10/05 04:29:55;;;;;;;9.33;5.67;;;;;;;8.48;100.00;101048.50;4976358;28;20062;-76
2022/10/05 04:32:47;;;;;;;7.97;5.03;;;;;;;8.48;100.00;101040.63;4969142;28;20079;-75
2022/10/05 04:35:37;;;;;;;8.53;4.63;;;;;;;8.50;100.00;101045.00;4989381;28;20105;-75
2022/10/05 04:38:10;;;;;;;8.47;5.13;;;;;;;8.52;100.00;101047.63;4967131;28;20101;-75
2022/10/05 04:41:14;;;;;;;8.85;4.85;;;;;;;8.56;100.00;101051.97;4982045;28;20050;-76
2022/10/05 04:44:03;;;;;;;9.48;4.72;;;;;;;8.53;100.00;101052.88;4976889;28;20475;-76
2022/10/05 04:46:41;;;;;;;8.10;4.80;;;;;;;8.63;100.00;101053.69;4981747;28;20065;-76
2022/10/05 04:49:19;;;;;;;10.00;5.40;;;;;;;8.61;100.00;101056.34;4981326;28;20129;-76
2022/10/05 04:52:03;;;;;;;7.57;4.43;;;;;;;8.63;100.00;101058.97;4984555;28;20039;-74
2022/10/05 04:54:41;;;;;;;9.43;4.97;;;;;;;8.64;100.00;101058.06;4969619;28;20043;-76
2022/10/05 04:57:24;;;;;;;6.70;4.73;;;;;;;8.63;100.00;101041.41;4986028;28;20051;-75
2022/10/05 05:00:00;;;;;;;7.70;4.50;;;;;;;8.68;100.00;101054.56;4979428;28;20496;-77
2022/10/05 05:02:51;;;;;;;6.53;4.40;;;;;;;8.73;100.00;101040.44;4988440;28;20468;-76
2022/10/05 05:05:18;;;;;;;8.00;4.63;;;;;;;8.68;100.00;101041.38;4986189;28;20072;-75
2022/10/05 05:08:04;;;;;;;6.90;4.53;;;;;;;8.67;100.00;101048.41;4949298;28;20045;-74
2022/10/05 05:10:46;;;;;;;6.00;4.43;;;;;;;8.65;100.00;101051.91;4986240;28;20467;-76
2022/10/05 05:13:12;;;;;;;8.27;5.07;;;;;;;8.64;100.00;101052.81;4987018;28;20596;-76
2022/10/05 05:15:45;;;;;;;7.45;4.18;;;;;;;8.63;100.00;101053.69;4983050;28;20097;-74
2022/10/05 05:18:16;;;;;;;7.53;4.30;;;;;;;8.61;100.00;101050.19;4986762;28;20492;-76
2022/10/05 05:21:16;;;;;;;9.10;5.07;;;;;;;8.65;100.00;101036.13;4969628;28;20289;-77
2022/10/05 05:23:48;;;;;;;7.95;4.97;;;;;;;8.62;100.00;101031.75;4980589;28;20479;-74
2022/10/05 05:26:33;;;;;;;8.07;4.78;;;;;;;8.62;100.00;101034.38;4986840;28;20042;-77
2022/10/05 05:29:30;;;;;;;8.43;4.95;;;;;;;8.61;100.00;101027.38;4984125;28;20413;-76
2022/10/05 05:32:04;;;;;;;6.18;4.45;;;;;;;8.68;100.00;101020.31;4982753;28;20098;-76
2022/10/05 05:34:43;;;;;;;8.73;4.50;;;;;;;8.65;100.00;101029.09;4958649;28;20038;-76
2022/10/05 05:37:30;;;;;;;6.63;4.20;;;;;;;8.65;100.00;101028.22;4952278;28;20101;-75
2022/10/05 05:40:14;;;;;;;9.93;5.38;;;;;;;8.65;100.00;101026.44;4952428;28;20046;-76
2022/10/05 05:43:05;;;;;;;7.67;5.07;;;;;;;8.72;100.00;101028.16;4972129;28;20507;-76
2022/10/05 05:45:41;;;;;;;7.55;4.88;;;;;;;8.70;100.00;101021.16;4975619;28;20430;-74
2022/10/05 05:48:23;;;;;;;7.80;5.15;;;;;;;8.68;100.00;101017.69;4967041;28;20047;-76
2022/10/05 05:51:03;;;;;;;9.20;5.63;;;;;;;8.69;100.00;101016.78;4971254;28;20097;-76
2022/10/05 05:53:40;;;;;;;7.72;4.15;;;;;;;8.72;100.00;101022.91;4973287;28;20031;-75
2022/10/05 05:56:13;;;;;;;7.32;4.30;;;;;;;8.69;100.00;101036.09;4970051;28;20423;-76
2022/10/05 05:58:47;;;;;;;7.93;4.30;;;;;;;8.69;100.00;101022.94;4981351;28;20121;-76
2022/10/05 06:01:34;;;;;;;6.68;4.05;;;;;;;8.73;100.00;101023.78;4970078;28;20869;-74
2022/10/05 06:04:34;;;;;;;7.85;4.45;;;;;;;8.73;100.00;101021.13;4990400;28;20144;-76
2022/10/05 06:07:02;;;;;;;7.00;4.50;;;;;;;8.76;100.00;101030.81;4957762;28;20043;-76
2022/10/05 06:09:43;;;;;;;9.93;4.83;;;;;;;8.74;100.00;101025.50;4990377;28;20098;-76
2022/10/05 06:12:15;;;;;;;6.87;4.10;;;;;;;8.75;100.00;101024.66;4989741;28;20183;-75
2022/10/05 06:14:55;;;;;;;9.93;5.05;;;;;;;8.84;100.00;101026.34;4986650;28;20090;-76
2022/10/05 06:17:43;;;;;;;7.10;4.32;;;;;;;8.90;100.00;101027.16;4987049;28;20035;-76
2022/10/05 06:20:45;;;;;;;6.22;3.88;;;;;;;8.91;100.00;101035.94;4954562;29;20051;-76
2022/10/05 06:23:33;;;;;;;6.47;3.97;;;;;;;8.94;100.00;101034.16;4963107;28;20117;-76
2022/10/05 06:26:09;;;;;;;6.72;3.83;;;;;;;9.03;100.00;101027.94;4964271;28;20046;-76
2022/10/05 06:28:36;;;;;;;6.82;4.18;;;;;;;9.10;100.00;101027.00;4976654;28;20043;-76
2022/10/05 06:31:44;;;;;;;7.75;4.63;;;;;;;9.17;100.00;101025.19;4993872;28;20204;-74
2022/10/05 06:34:22;;;;;;;6.72;4.43;;;;;;;9.26;100.00;101027.75;4987565;28;20555;-74
2022/10/05 06:36:52;;;;;;;5.95;4.28;;;;;;;9.45;100.00;101031.06;4982018;28;20475;-75
2022/10/05 06:39:52;;;;;;;6.72;3.88;;;;;;;9.57;100.00;101042.34;4988595;28;20068;-76
2022/10/05 06:42:37;;;;;;;7.13;4.37;;;;;;;9.65;100.00;101041.41;4977565;28;20045;-76
2022/10/05 06:45:18;;;;;;;6.30;4.20;;;;;;;9.72;100.00;101036.06;4986561;28;20479;-75
2022/10/05 06:47:58;;;;;;;6.38;4.13;;;;;;;9.77;100.00;101033.38;4984756;28;20133;-76
2022/10/05 06:50:43;;;;;;;7.28;4.10;;;;;;;9.90;100.00;101034.09;4963527;28;20050;-76
2022/10/05 06:53:22;;;;;;;8.30;4.18;;;;;;;9.98;100.00;101043.66;4979491;28;20875;-76
2022/10/05 06:56:01;;;;;;;9.70;4.65;;;;;;;9.99;100.00;101053.34;4987992;28;20443;-76
2022/10/05 06:58:54;;;;;;;6.03;3.97;;;;;;;10.03;100.00;101046.28;4996806;28;20038;-75
2022/10/05 07:01:39;;;;;;;8.40;4.50;;;;;;;10.20;100.00;101049.56;4987028;28;20531;-76
2022/10/05 07:04:21;;;;;;;7.50;4.05;;;;;;;10.19;100.00;101046.97;4989666;28;20046;-75
2022/10/05 07:06:52;;;;;;;6.20;4.05;;;;;;;10.31;100.00;101049.47;4974841;28;20550;-76
2022/10/05 07:09:43;;;;;;;6.18;3.60;;;;;;;10.42;100.00;101043.16;4970785;28;20051;-75
2022/10/05 07:12:32;;;;;;;7.40;3.63;;;;;;;10.51;100.00;101038.63;4961876;28;20492;-75
2022/10/05 07:15:20;;;;;;;6.22;4.00;;;;;;;10.56;100.00;101039.44;4983682;28;20051;-76
2022/10/05 07:18:12;;;;;;;5.90;3.42;;;;;;;10.68;100.00;101034.84;4968775;28;20046;-75
2022/10/05 07:20:51;;;;;;;6.57;3.97;;;;;;;10.76;100.00;101045.28;4984120;28;20046;-76
2022/10/05 07:23:27;;;;;;;6.88;4.25;;;;;;;10.82;100.00;101039.03;4987377;28;20043;-75
2022/10/05 07:26:02;;;;;;;6.28;4.30;;;;;;;10.86;100.00;101040.75;4965642;28;20043;-76
2022/10/05 07:29:05;;;;;;;4.97;3.03;;;;;;;10.92;100.00;101038.88;4983891;28;20054;-75
2022/10/05 07:31:39;;;;;;;6.95;4.25;;;;;;;10.97;100.00;101038.81;4983895;28;20046;-75
2022/10/05 07:34:18;;;;;;;;;;;;;;;11.03;100.00;101040.50;4984600;28;20523;-76
2022/10/05 07:40:27;;;;;;;7.40;3.50;;;;;;;11.12;100.00;101024.47;4986340;28;22013;-75
2022/10/05 07:43:07;;;;;;;6.40;3.58;;;;;;;11.14;100.00;101020.03;4965910;28;20054;-75
2022/10/05 07:45:45;;;;;;;7.65;3.70;;;;;;;11.17;100.00;101022.59;4987421;28;20047;-76
2022/10/05 07:48:19;;;;;;;5.03;3.30;;;;;;;11.27;100.00;101017.16;4982990;28;20039;-75
2022/10/05 07:50:59;;;;;;;8.43;3.65;;;;;;;11.40;100.00;101025.72;4987660;28;20043;-76
2022/10/05 07:53:35;;;;;;;5.40;3.22;;;;;;;11.33;100.00;101021.44;4985973;28;20043;-74
2022/10/05 07:56:09;;;;;;;7.88;3.90;;;;;;;11.43;100.00;101028.31;4967911;28;20046;-75
2022/10/05 07:58:50;;;;;;;4.80;3.15;;;;;;;11.57;100.00;101028.06;4974033;28;20516;-74
2022/10/05 08:01:23;;;;;;;6.13;3.60;;;;;;;11.73;100.00;101029.50;4970540;28;20050;-76
2022/10/05 08:03:51;;;;;;;4.93;3.40;;;;;;;11.97;100.00;101022.91;4955345;28;20039;-76
2022/10/05 08:06:36;;;;;;;6.18;3.63;;;;;;;12.06;100.00;101024.50;4983885;28;20043;-76
2022/10/05 08:09:25;;;;;;;5.15;3.50;;;;;;;12.27;100.00;101018.72;4980628;28;20035;-76
2022/10/05 08:11:54;;;;;;;3.97;2.72;;;;;;;12.43;100.00;101018.38;4982459;28;20098;-76
2022/10/05 08:14:32;;;;;;;7.63;3.40;;;;;;;12.59;100.00;101012.69;4981841;28;20451;-76
2022/10/05 08:17:04;;;;;;;4.95;3.20;;;;;;;12.61;100.00;101012.66;4983179;28;20058;-73
2022/10/05 08:19:47;;;;;;;5.15;3.97;;;;;;;12.64;100.00;101002.88;4982684;28;20639;-76
2022/10/05 08:22:22;;;;;;;6.40;3.15;;;;;;;12.64;100.00;101002.88;4963829;28;20051;-75
2022/10/05 08:25:01;;;;;;;4.65;3.47;;;;;;;12.72;100.00;101000.06;4982851;28;20035;-76
2022/10/05 08:27:46;;;;;;;5.22;3.22;;;;;;;12.79;100.00;100990.19;4969901;28;20050;-77
2022/10/05 08:30:14;;;;;;;5.82;3.25;;;;;;;12.90;100.00;100983.69;4986643;28;20110;-74
2022/10/05 08:33:03;;;;;;;6.63;3.63;;;;;;;12.93;100.00;100986.25;5063920;22;20067;-81
2022/10/05 08:35:43;;;;;;;5.35;3.30;;;;;;;12.98;100.00;100991.47;5019820;28;20080;-81
2022/10/05 08:38:13;;;;;;;5.15;3.67;;;;;;;12.94;100.00;100987.13;5001614;28;20049;-79
2022/10/05 08:40:59;;;;;;;4.78;3.78;;;;;;;12.96;100.00;100978.25;4999745;28;20061;-79
2022/10/05 08:43:50;;;;;;;10.02;6.68;;;;;;;13.15;100.00;100988.38;5022850;28;20034;-79
2022/10/05 08:46:43;;;;;;;5.95;3.08;;;;;;;13.22;100.00;100980.25;4984979;28;20064;-82
2022/10/05 08:49:39;;;;;;;8.02;3.95;;;;;;;13.26;100.00;100980.16;5024356;28;20096;-82
2022/10/05 08:52:25;;;;;;;5.93;3.53;;;;;;;13.28;100.00;100980.97;4991442;28;20038;-79
2022/10/05 08:55:42;;;;;;;7.80;3.70;;;;;;;13.41;100.00;100979.75;5026149;28;20062;-80
2022/10/05 08:58:36;;;;;;;6.53;3.90;;;;;;;13.38;100.00;100979.84;4964564;28;20483;-79
2022/10/05 09:01:02;;;;;;;5.90;3.53;;;;;;;13.41;100.00;100988.59;4967811;28;20562;-79
2022/10/05 09:03:45;;;;;;;4.88;3.35;;;;;;;13.52;100.00;100983.84;5008697;28;20104;-79
2022/10/05 09:06:20;;;;;;;5.22;4.05;;;;;;;13.58;100.00;100987.25;5021862;28;20104;-81
2022/10/05 09:09:10;;;;;;;5.20;3.38;;;;;;;13.64;100.00;100980.00;4985318;28;20049;-80
2022/10/05 09:11:44;;;;;;;6.72;3.20;;;;;;;13.73;100.00;100981.53;5009479;28;20506;-80
2022/10/05 09:14:53;;;;;;;4.60;2.67;;;;;;;13.90;100.00;100981.03;5001554;28;20037;-79
2022/10/05 09:18:19;;;;;;;5.32;3.40;;;;;;;13.91;100.00;100985.44;5010683;28;20046;-80
2022/10/05 09:20:54;;;;;;;6.05;3.92;;;;;;;14.00;100.00;100983.38;4998841;28;20189;-80
2022/10/05 09:23:36;;;;;;;8.50;3.58;;;;;;;13.89;100.00;100976.66;5010803;28;20081;-79
2022/10/05 09:26:40;;;;;;;5.22;3.30;;;;;;;14.03;100.00;100974.44;5008687;28;20034;-79
2022/10/05 09:29:46;;;;;;;12.32;7.40;;;;;;;14.16;100.00;100977.63;4994249;28;20045;-79
2022/10/05 09:32:34;;;;;;;7.38;3.75;;;;;;;14.51;100.00;100973.91;5025409;28;20050;-79
2022/10/05 09:35:08;;;;;;;5.50;2.97;;;;;;;14.71;100.00;100976.78;4996134;28;20050;-79
2022/10/05 09:37:47;;;;;;;5.45;3.22;;;;;;;14.85;100.00;100971.88;4992748;28;20041;-80
2022/10/05 09:40:46;;;;;;;6.85;3.95;;;;;;;14.90;100.00;100967.28;4998669;28;20088;-79
2022/10/05 09:43:25;;;;;;;5.05;3.10;;;;;;;14.99;99.54;100960.78;5015232;28;20046;-80
2022/10/05 09:46:06;;;;;;;5.47;2.72;;;;;;;14.96;99.84;100966.19;5011719;28;20515;-79
2022/10/05 09:49:10;;;;;;;6.43;3.22;;;;;;;15.11;98.63;100962.16;5000685;28;20081;-80
2022/10/05 09:51:53;;;;;;;5.65;2.80;;;;;;;15.11;100.00;100965.69;5043767;28;20068;-80
2022/10/05 09:54:39;;;;;;;6.87;3.50;;;;;;;15.25;97.06;100965.22;5002455;28;20049;-79
2022/10/05 09:57:50;;;;;;;6.72;3.28;;;;;;;15.12;98.57;100974.53;5017409;28;20046;-80
2022/10/05 10:00:42;;;;;;;6.45;3.05;;;;;;;15.31;95.73;100980.09;5010009;28;20081;-80
2022/10/05 10:03:55;;;;;;;6.88;3.60;;;;;;;15.67;96.15;100962.84;5024597;28;20038;-79
2022/10/05 10:06:45;;;;;;;5.72;2.85;;;;;;;16.00;89.14;100963.38;4989836;28;20089;-83
2022/10/05 10:09:36;;;;;;;4.63;3.03;;;;;;;16.36;89.65;100967.34;5010575;28;20089;-82
2022/10/05 10:12:32;;;;;;;5.47;2.78;;;;;;;16.64;85.98;100962.63;5005419;28;20038;-83
2022/10/05 10:15:37;;;;;;;5.25;2.85;;;;;;;16.79;84.71;100956.69;5003108;28;20046;-84
2022/10/05 10:18:22;;;;;;;5.25;3.28;;;;;;;17.00;82.32;100959.41;5022220;28;20061;-84
2022/10/05 10:20:54;;;;;;;5.95;3.42;;;;;;;17.16;82.10;100964.03;5003922;28;20095;-83
2022/10/05 10:23:44;;;;;;;7.13;2.75;;;;;;;17.39;80.66;100963.00;5012164;28;20049;-83
2022/10/05 10:26:55;;;;;;;4.43;3.35;;;;;;;17.53;80.35;100972.25;4990046;28;20113;-81
2022/10/05 10:29:48;;;;;;;5.22;2.95;;;;;;;17.68;77.47;100968.88;4996841;28;20525;-82
2022/10/05 10:32:49;;;;;;;5.47;3.28;;;;;;;17.78;79.54;100964.88;4996927;28;20044;-83
2022/10/05 10:35:35;;;;;;;4.55;2.83;;;;;;;17.71;76.96;100971.44;5019412;28;20092;-82
2022/10/05 10:38:26;;;;;;;3.55;2.80;;;;;;;17.73;78.71;100967.75;4980704;28;20053;-82
2022/10/05 10:41:25;;;;;;;6.40;3.60;;;;;;;17.83;77.37;100956.69;5004287;28;20045;-81
2022/10/05 10:44:04;;;;;;;4.43;2.97;;;;;;;17.70;79.86;100965.25;4995190;28;20053;-83
2022/10/05 10:46:47;;;;;;;4.25;3.10;;;;;;;17.56;79.35;100956.94;5010724;28;20048;-82
2022/10/05 10:49:39;;;;;;;7.00;3.20;;;;;;;17.44;80.49;100954.81;4996992;28;20426;-83
2022/10/05 10:52:16;;;;;;;5.40;3.50;;;;;;;17.73;81.26;100966.88;5013456;28;20042;-83
2022/10/05 10:55:14;;;;;;;3.80;2.55;;;;;;;17.80;80.82;100960.34;4992069;28;20042;-82
2022/10/05 10:57:53;;;;;;;4.80;3.00;;;;;;;17.96;76.41;100949.81;5003171;28;20519;-81
2022/10/05 11:00:44;;;;;;;9.32;3.78;;;;;;;18.07;78.48;100938.59;5012609;28;20057;-83
2022/10/05 11:03:44;;;;;;;7.88;3.20;;;;;;;18.20;76.72;100939.78;4997911;28;20107;-82
2022/10/05 11:06:24;;;;;;;4.63;3.10;;;;;;;18.37;76.41;100944.31;5024465;28;20530;-83
2022/10/05 11:09:00;;;;;;;6.70;3.53;;;;;;;18.67;74.93;100953.56;4961320;28;20042;-82
2022/10/05 11:11:45;;;;;;;5.95;3.33;;;;;;;18.66;73.06;100950.94;5028278;28;20045;-81
2022/10/05 11:14:29;;;;;;;6.55;4.07;;;;;;;18.86;73.84;100942.81;5033619;28;20054;-83
2022/10/05 11:17:20;;;;;;;5.07;3.20;;;;;;;18.66;74.35;100925.03;4980825;28;20427;-83
2022/10/05 11:20:08;;;;;;;4.88;3.10;;;;;;;18.58;77.98;100937.91;4980038;28;20069;-81
2022/10/05 11:22:45;;;;;;;5.95;4.00;;;;;;;18.54;75.94;100942.56;4995893;28;20101;-81
2022/10/05 11:25:45;;;;;;;5.43;3.63;;;;;;;18.41;76.19;100922.66;4980264;28;20096;-82
2022/10/05 11:28:31;;;;;;;5.70;4.03;;;;;;;18.07;75.68;100922.56;5008459;28;20061;-82
2022/10/05 11:31:20;;;;;;;6.72;3.80;;;;;;;17.83;78.26;100930.81;5008208;28;20140;-82
2022/10/05 11:33:55;;;;;;;8.70;3.88;;;;;;;17.65;79.75;100928.94;5001893;28;20041;-82
2022/10/05 11:36:33;;;;;;;7.95;4.20;;;;;;;17.49;81.06;100927.88;4981280;28;20088;-81
2022/10/05 11:39:21;;;;;;;4.20;3.13;;;;;;;17.35;83.48;100926.72;5002110;28;20050;-82
2022/10/05 11:41:54;;;;;;;7.18;4.20;;;;;;;17.26;80.49;100923.59;4975433;28;20039;-81
2022/10/05 11:44:32;;;;;;;4.55;3.40;;;;;;;17.18;83.37;100921.25;4995599;28;20049;-82
2022/10/05 11:47:07;;;;;;;6.07;3.80;;;;;;;17.30;82.48;100904.66;4982177;28;20166;-80
2022/10/05 11:49:49;;;;;;;5.38;3.35;;;;;;;17.49;85.87;100909.19;4998097;28;20076;-80
2022/10/05 11:52:39;;;;;;;4.22;3.28;;;;;;;17.77;84.81;100908.84;4995146;28;20042;-81
2022/10/05 11:55:25;;;;;;;5.50;3.53;;;;;;;17.80;82.09;100890.84;4996553;28;20399;-81
2022/10/05 11:57:56;;;;;;;7.30;3.95;;;;;;;17.94;80.36;100885.72;4993792;28;20045;-80
2022/10/05 12:00:29;;;;;;;5.28;3.33;;;;;;;17.89;79.58;100889.56;4981040;28;20048;-80
2022/10/05 12:03:09;;;;;;;5.47;3.45;;;;;;;17.91;78.82;100883.22;4978899;28;20728;-82
2022/10/05 12:05:52;;;;;;;4.97;3.25;;;;;;;17.63;80.39;100891.59;4978354;28;20041;-81
2022/10/05 12:08:48;;;;;;;6.38;3.50;;;;;;;17.73;83.49;100878.72;5010996;28;20073;-81
2022/10/05 12:11:52;;;;;;;5.22;2.75;;;;;;;17.78;81.67;100876.69;4977924;28;20049;-82
2022/10/05 12:14:38;;;;;;;4.18;2.90;;;;;;;17.92;82.89;100874.25;4902661;29;20050;-81
2022/10/05 12:17:23;;;;;;;5.18;3.83;;;;;;;18.21;79.98;100866.63;5013537;28;20112;-80
2022/10/05 12:19:57;;;;;;;6.25;3.25;;;;;;;18.29;77.98;100859.09;5001140;28;20046;-80
2022/10/05 12:22:30;;;;;;;4.60;3.25;;;;;;;18.42;77.28;100862.91;4994471;28;20044;-81
2022/10/05 12:25:05;;;;;;;3.85;2.90;;;;;;;18.57;77.66;100854.09;4994136;28;20054;-81
2022/10/05 12:27:37;;;;;;;4.15;3.08;;;;;;;18.60;75.74;100849.56;4978973;28;20060;-81
2022/10/05 12:30:09;;;;;;;5.47;3.33;;;;;;;18.49;76.27;100855.41;4985327;28;20107;-82
2022/10/05 12:32:47;;;;;;;5.38;3.65;;;;;;;18.49;77.22;100855.41;5022248;28;20486;-81
2022/10/05 12:35:57;;;;;;;3.30;2.85;;;;;;;18.67;78.14;100851.88;5002639;28;20041;-81
2022/10/05 12:38:52;;;;;;;4.50;3.35;;;;;;;18.71;74.07;100845.41;4994631;28;20050;-81
2022/10/05 12:41:20;;;;;;;;;;;;;;;18.83;75.27;100852.81;4992381;28;20479;-82